Time;durP1;ratioP1;P1;durP2;ratioP2;P2;SDS_P1;SDS_P2;PMS_P1;PMS_P2;Temp;Humidity;BMP_temperature;BMP_pressure;BME280_temperature;BME280_humidity;BME280_pressure;Samples;Min_cycle;Max_cycle;Signal;HPM_P1;HPM_P2
2022/10/16 00:00:34;;;;;;;3.40;0.15;;;13.20;99.90;;;;;;5036294;28;20022;-75
2022/10/16 00:03:01;;;;;;;2.88;0.05;;;13.10;99.90;;;;;;5018574;28;20023;-75
2022/10/16 00:05:27;;;;;;;4.07;0.10;;;13.80;99.90;;;;;;5036227;28;20033;-75
2022/10/16 00:07:52;;;;;;;1.25;0.17;;;13.20;99.90;;;;;;5036216;28;20072;-75
2022/10/16 00:10:18;;;;;;;3.13;0.00;;;13.10;99.90;;;;;;5035896;28;20057;-75
2022/10/16 00:12:43;;;;;;;1.08;0.00;;;13.10;99.90;;;;;;5036684;28;20026;-75
2022/10/16 00:15:09;;;;;;;3.78;0.00;;;13.10;99.90;;;;;;5018245;28;20026;-75
2022/10/16 00:17:35;;;;;;;3.65;0.00;;;13.10;99.90;;;;;;5018259;28;20063;-75
2022/10/16 00:20:00;;;;;;;1.65;0.00;;;13.10;99.90;;;;;;5035941;28;20029;-75
2022/10/16 00:22:26;;;;;;;4.78;0.10;;;13.50;99.90;;;;;;5035990;28;20022;-75
2022/10/16 00:24:52;;;;;;;1.15;0.00;;;13.00;99.90;;;;;;5018251;28;20025;-75
2022/10/16 00:27:17;;;;;;;2.78;0.00;;;13.00;99.90;;;;;;5018133;28;20126;-75
2022/10/16 00:29:43;;;;;;;0.40;0.00;;;13.00;99.90;;;;;;5035734;28;20021;-75
2022/10/16 00:32:08;;;;;;;0.88;0.00;;;13.10;99.90;;;;;;5035700;28;20030;-75
2022/10/16 00:34:34;;;;;;;2.83;0.15;;;13.10;99.90;;;;;;5035885;28;20025;-75
2022/10/16 00:37:00;;;;;;;3.92;0.00;;;13.10;99.90;;;;;;5035712;28;20542;-75
2022/10/16 00:39:25;;;;;;;2.53;0.00;;;13.10;99.90;;;;;;5036258;28;20037;-76
2022/10/16 00:41:51;;;;;;;1.90;0.10;;;13.30;99.90;;;;;;5035480;28;20076;-75
2022/10/16 00:44:41;;;;;;;0.50;0.00;;;13.20;99.90;;;;;;5017856;28;20030;-75
2022/10/16 00:47:10;;;;;;;2.30;0.10;;;13.30;99.90;;;;;;5017663;28;20026;-76
2022/10/16 00:49:36;;;;;;;;;;;13.30;99.90;;;;;;5018111;28;20025;-75
2022/10/16 00:52:02;;;;;;;1.65;0.10;;;13.30;99.90;;;;;;5035403;28;19916;-75
2022/10/16 00:54:30;;;;;;;5.00;0.45;;;13.30;99.90;;;;;;5017525;28;20013;-75
2022/10/16 00:57:00;;;;;;;1.63;0.10;;;13.30;99.90;;;;;;5036110;28;20104;-75
2022/10/16 00:59:29;;;;;;;1.65;0.10;;;13.40;99.90;;;;;;5017564;28;20026;-75
2022/10/16 01:01:55;;;;;;;6.07;0.57;;;13.40;99.90;;;;;;5035039;28;20455;-75
2022/10/16 01:04:22;;;;;;;1.08;0.20;;;13.40;99.90;;;;;;5035796;28;20086;-76
2022/10/16 01:07:03;;;;;;;0.57;0.22;;;14.70;99.90;;;;;;5035073;28;20084;-75
2022/10/16 01:09:41;;;;;;;1.27;0.28;;;13.50;99.90;;;;;;5035245;28;20481;-75
2022/10/16 01:12:14;;;;;;;4.18;0.13;;;13.60;99.90;;;;;;5034923;28;20030;-75
2022/10/16 01:14:48;;;;;;;1.52;0.10;;;13.70;99.90;;;;;;5035072;28;20026;-75
2022/10/16 01:17:49;;;;;;;0.40;0.03;;;13.60;99.90;;;;;;5034913;28;20476;-75
2022/10/16 01:20:25;;;;;;;2.10;0.32;;;13.70;99.90;;;;;;4988660;28;20060;-75
2022/10/16 01:23:10;;;;;;;2.72;0.30;;;13.60;99.90;;;;;;5034828;28;20044;-75
2022/10/16 01:26:15;;;;;;;1.70;0.22;;;13.60;99.90;;;;;;5017154;28;20033;-75
2022/10/16 01:29:02;;;;;;;2.30;0.47;;;13.60;99.90;;;;;;5035244;28;20030;-75
2022/10/16 01:31:32;;;;;;;0.57;0.20;;;13.60;99.90;;;;;;5017623;28;20045;-75
2022/10/16 01:34:04;;;;;;;1.33;0.10;;;13.60;99.90;;;;;;5016954;28;20022;-75
2022/10/16 01:36:39;;;;;;;2.50;0.15;;;13.60;99.90;;;;;;5034571;28;20370;-75
2022/10/16 01:39:08;;;;;;;2.40;0.08;;;13.60;99.90;;;;;;5016690;28;20013;-74
2022/10/16 01:41:37;;;;;;;;;;;13.60;99.90;;;;;;5034835;28;20041;-75
2022/10/16 01:44:13;;;;;;;0.82;0.17;;;13.60;99.90;;;;;;5034458;28;19955;-75
2022/10/16 01:46:42;;;;;;;1.95;0.63;;;13.60;99.90;;;;;;5016904;28;20028;-75
2022/10/16 01:49:10;;;;;;;2.75;0.10;;;13.60;99.90;;;;;;5016796;28;20116;-75
2022/10/16 01:51:36;;;;;;;3.60;0.20;;;13.60;99.90;;;;;;5016760;28;20395;-74
2022/10/16 01:54:04;;;;;;;1.38;0.22;;;13.50;99.90;;;;;;5016514;28;20036;-75
2022/10/16 01:56:31;;;;;;;5.35;0.08;;;13.40;99.90;;;;;;5016557;28;20025;-76
2022/10/16 01:59:03;;;;;;;3.30;0.10;;;13.40;99.90;;;;;;5016549;28;20426;-75
2022/10/16 02:01:33;;;;;;;1.98;0.20;;;13.40;99.90;;;;;;5034653;28;20064;-75
2022/10/16 02:04:04;;;;;;;0.93;0.10;;;13.40;99.90;;;;;;5033976;28;20443;-75
2022/10/16 02:06:30;;;;;;;2.35;0.10;;;13.40;99.90;;;;;;5015827;28;20052;-76
2022/10/16 02:08:55;;;;;;;0.10;0.00;;;13.60;99.90;;;;;;5016247;28;20060;-75
2022/10/16 02:11:21;;;;;;;4.40;1.05;;;13.40;99.90;;;;;;5016064;28;20481;-75
2022/10/16 02:13:50;;;;;;;0.30;0.00;;;13.40;99.90;;;;;;5033920;28;20033;-76
2022/10/16 02:16:16;;;;;;;1.67;0.52;;;13.30;99.90;;;;;;5034423;28;20021;-76
2022/10/16 02:18:43;;;;;;;0.50;0.10;;;13.30;99.90;;;;;;5034380;28;20488;-76
2022/10/16 02:21:29;;;;;;;2.67;0.20;;;13.30;99.90;;;;;;5015997;28;20030;-75
2022/10/16 02:24:07;;;;;;;2.63;0.20;;;13.30;99.90;;;;;;5033798;28;20491;-74
2022/10/16 02:26:48;;;;;;;4.65;0.40;;;13.30;99.90;;;;;;5016130;28;20030;-74
2022/10/16 02:29:18;;;;;;;1.13;0.32;;;13.20;99.90;;;;;;5033726;28;20029;-74
2022/10/16 02:31:48;;;;;;;3.50;0.52;;;13.20;99.90;;;;;;5016320;28;20026;-75
2022/10/16 02:34:15;;;;;;;1.50;0.40;;;13.30;99.90;;;;;;5033949;28;20357;-74
2022/10/16 02:36:42;;;;;;;1.88;0.30;;;13.20;99.90;;;;;;5033517;28;20045;-75
2022/10/16 02:39:09;;;;;;;0.25;0.08;;;13.20;99.90;;;;;;5033543;28;20487;-75
2022/10/16 02:41:35;;;;;;;4.82;0.70;;;13.20;99.90;;;;;;5033378;28;20056;-75
2022/10/16 02:44:00;;;;;;;1.75;0.10;;;13.20;99.90;;;;;;5033414;28;20029;-75
2022/10/16 02:46:26;;;;;;;0.82;0.20;;;13.20;99.90;;;;;;5015742;28;20041;-75
2022/10/16 02:48:51;;;;;;;0.88;0.00;;;13.10;99.90;;;;;;5015748;28;20064;-74
2022/10/16 02:51:17;;;;;;;4.03;0.50;;;13.10;99.90;;;;;;5033147;28;20064;-74
2022/10/16 02:53:42;;;;;;;3.50;0.45;;;13.10;99.90;;;;;;5033341;28;20029;-75
2022/10/16 02:56:08;;;;;;;2.50;0.40;;;13.10;99.90;;;;;;5033637;28;20025;-76
2022/10/16 02:58:34;;;;;;;1.23;0.00;;;13.10;99.90;;;;;;5033155;28;20365;-75
2022/10/16 03:00:59;;;;;;;1.83;0.60;;;13.10;99.90;;;;;;5033101;28;20029;-75
2022/10/16 03:03:25;;;;;;;0.70;0.10;;;13.10;99.90;;;;;;5015562;28;20033;-75
2022/10/16 03:05:50;;;;;;;2.85;0.47;;;13.60;99.90;;;;;;5033125;28;20543;-75
2022/10/16 03:08:16;;;;;;;0.63;0.10;;;13.10;99.90;;;;;;5033193;28;20025;-75
2022/10/16 03:10:41;;;;;;;1.42;0.50;;;13.20;99.90;;;;;;5015110;28;20116;-75
2022/10/16 03:13:07;;;;;;;2.40;0.20;;;13.10;99.90;;;;;;5033025;28;20029;-74
2022/10/16 03:15:32;;;;;;;3.10;0.20;;;13.10;99.90;;;;;;5032957;28;20033;-75
2022/10/16 03:17:58;;;;;;;1.90;0.00;;;13.00;99.90;;;;;;5016417;28;20485;-75
2022/10/16 03:20:24;;;;;;;0.47;0.08;;;13.00;99.90;;;;;;5037063;28;20076;-75
2022/10/16 03:22:50;;;;;;;2.10;0.10;;;13.00;99.90;;;;;;5019302;28;20076;-74
2022/10/16 03:25:15;;;;;;;1.33;0.13;;;12.90;99.90;;;;;;5037590;28;20025;-74
2022/10/16 03:27:41;;;;;;;1.33;0.00;;;12.90;99.90;;;;;;5019306;28;20017;-74
2022/10/16 03:30:07;;;;;;;1.33;0.00;;;12.90;99.90;;;;;;5019065;28;20057;-75
2022/10/16 03:32:33;;;;;;;2.50;0.32;;;12.90;99.90;;;;;;5019173;28;20053;-74
2022/10/16 03:34:59;;;;;;;0.20;0.10;;;12.90;99.90;;;;;;5019207;28;20014;-74
2022/10/16 03:37:24;;;;;;;1.02;0.13;;;12.90;99.90;;;;;;5036828;28;20383;-75
2022/10/16 03:39:50;;;;;;;1.50;0.60;;;13.00;99.90;;;;;;5036672;28;20024;-75
2022/10/16 03:42:19;;;;;;;1.73;0.55;;;12.90;99.90;;;;;;5036722;28;20034;-75
2022/10/16 03:44:44;;;;;;;0.30;0.00;;;12.80;99.90;;;;;;5018959;28;20084;-75
2022/10/16 03:47:10;;;;;;;0.40;0.00;;;12.80;99.90;;;;;;5036642;28;20021;-75
2022/10/16 03:49:35;;;;;;;1.48;0.00;;;12.80;99.90;;;;;;5018817;28;20057;-76
2022/10/16 03:52:01;;;;;;;1.92;0.00;;;12.80;99.90;;;;;;5018695;28;20028;-75
2022/10/16 03:54:26;;;;;;;1.33;0.08;;;12.70;99.90;;;;;;5019137;28;20028;-75
2022/10/16 03:56:52;;;;;;;1.85;0.00;;;12.70;99.90;;;;;;5018702;28;20026;-75
2022/10/16 03:59:18;;;;;;;0.65;0.00;;;12.70;99.90;;;;;;5018697;28;20160;-75
2022/10/16 04:01:43;;;;;;;1.42;0.00;;;12.80;99.90;;;;;;5036801;28;20025;-75
2022/10/16 04:04:09;;;;;;;0.10;0.00;;;12.80;99.90;;;;;;5018656;28;20555;-76
2022/10/16 04:06:34;;;;;;;1.25;0.20;;;12.80;99.90;;;;;;5018576;28;20026;-75
2022/10/16 04:09:00;;;;;;;0.73;0.00;;;12.80;99.90;;;;;;5018540;28;20025;-75
2022/10/16 04:11:28;;;;;;;1.95;0.30;;;12.80;99.90;;;;;;5035895;28;20081;-75
2022/10/16 04:13:54;;;;;;;0.43;0.00;;;12.80;99.90;;;;;;5018611;28;20103;-75
2022/10/16 04:16:20;;;;;;;0.65;0.17;;;12.80;99.90;;;;;;5036052;28;20090;-75
2022/10/16 04:18:45;;;;;;;0.38;0.00;;;12.80;99.90;;;;;;5018855;28;20155;-76
2022/10/16 04:21:11;;;;;;;0.45;0.00;;;12.90;99.90;;;;;;5018751;28;20380;-76
2022/10/16 04:23:36;;;;;;;0.20;0.00;;;12.80;99.90;;;;;;5035957;28;20057;-76
2022/10/16 04:26:02;;;;;;;1.80;0.00;;;12.80;99.90;;;;;;5035878;28;20029;-76
2022/10/16 04:28:28;;;;;;;0.25;0.00;;;12.80;99.90;;;;;;5017658;28;20116;-76
2022/10/16 04:30:53;;;;;;;2.05;0.08;;;12.80;99.90;;;;;;5035975;28;20095;-77
2022/10/16 04:33:19;;;;;;;3.78;0.20;;;13.00;99.90;;;;;;5035869;28;20021;-77
2022/10/16 04:35:45;;;;;;;1.05;0.10;;;12.80;99.90;;;;;;5036273;28;20030;-77
2022/10/16 04:38:10;;;;;;;1.10;0.00;;;12.80;99.90;;;;;;5036277;28;20096;-76
2022/10/16 04:40:36;;;;;;;0.47;0.28;;;12.80;99.90;;;;;;5035776;28;20045;-77
2022/10/16 04:43:03;;;;;;;0.22;0.00;;;12.70;99.90;;;;;;5018051;28;20017;-77
2022/10/16 04:45:29;;;;;;;1.02;0.10;;;12.60;99.90;;;;;;5035664;28;20063;-77
2022/10/16 04:47:58;;;;;;;2.40;0.20;;;12.70;99.90;;;;;;5035791;28;20057;-77
2022/10/16 04:50:23;;;;;;;;;;;12.60;99.90;;;;;;5019037;28;20034;-77
2022/10/16 04:52:49;;;;;;;0.90;0.00;;;12.60;99.90;;;;;;5035955;28;20427;-77
2022/10/16 04:55:15;;;;;;;3.35;0.00;;;12.60;99.90;;;;;;5035378;28;20029;-76
2022/10/16 04:57:40;;;;;;;2.10;0.52;;;12.50;99.90;;;;;;5035965;28;20022;-77
2022/10/16 05:00:07;;;;;;;0.30;0.00;;;12.50;99.90;;;;;;5036300;28;20033;-76
2022/10/16 05:02:33;;;;;;;0.10;0.00;;;12.50;99.90;;;;;;5035280;28;20017;-76
2022/10/16 05:04:59;;;;;;;5.38;0.30;;;12.40;99.90;;;;;;5017491;28;20116;-76
2022/10/16 05:07:24;;;;;;;4.50;0.20;;;12.40;99.90;;;;;;5035168;28;20073;-76
2022/10/16 05:09:50;;;;;;;0.25;0.00;;;12.40;99.90;;;;;;5017177;28;20419;-76
2022/10/16 05:12:16;;;;;;;4.18;0.45;;;12.40;99.90;;;;;;5035567;28;20026;-76
2022/10/16 05:14:41;;;;;;;2.20;0.28;;;12.40;99.90;;;;;;5017400;28;20018;-76
2022/10/16 05:17:07;;;;;;;0.90;0.00;;;12.40;99.90;;;;;;5034900;28;20032;-76
2022/10/16 05:19:32;;;;;;;0.80;0.00;;;12.50;99.90;;;;;;5035272;28;20044;-76
2022/10/16 05:21:58;;;;;;;1.45;0.00;;;12.80;99.90;;;;;;5017378;28;20080;-76
2022/10/16 05:24:24;;;;;;;2.33;0.08;;;12.60;99.90;;;;;;5017427;28;20037;-76
2022/10/16 05:26:50;;;;;;;0.80;0.10;;;12.70;99.90;;;;;;5017098;28;20105;-76
2022/10/16 05:29:15;;;;;;;0.82;0.10;;;12.60;99.90;;;;;;5035344;28;20416;-76
2022/10/16 05:31:41;;;;;;;1.75;0.73;;;12.60;99.90;;;;;;5016813;28;20182;-76
2022/10/16 05:34:06;;;;;;;4.22;0.10;;;12.60;99.90;;;;;;5034625;28;20036;-76
2022/10/16 05:36:32;;;;;;;0.22;0.00;;;12.70;99.90;;;;;;5035312;28;20021;-75
2022/10/16 05:38:58;;;;;;;0.30;0.05;;;12.60;99.90;;;;;;5034573;28;20396;-76
2022/10/16 05:41:25;;;;;;;0.55;0.30;;;12.60;99.90;;;;;;5015812;28;20395;-76
2022/10/16 05:43:51;;;;;;;1.17;0.10;;;12.60;99.90;;;;;;5034448;28;20050;-76
2022/10/16 05:46:17;;;;;;;1.88;0.00;;;12.70;99.90;;;;;;5016753;28;20044;-75
2022/10/16 05:48:43;;;;;;;2.00;0.52;;;12.70;99.90;;;;;;5016657;28;20041;-76
2022/10/16 05:51:11;;;;;;;1.35;0.10;;;12.70;99.90;;;;;;5016531;28;20049;-75
2022/10/16 05:53:38;;;;;;;0.75;0.10;;;12.70;99.90;;;;;;5034765;28;20025;-76
2022/10/16 05:56:05;;;;;;;0.93;0.30;;;12.70;99.90;;;;;;5034280;28;20043;-76
2022/10/16 05:58:32;;;;;;;1.52;0.80;;;12.70;99.90;;;;;;5016343;28;20384;-76
2022/10/16 06:01:04;;;;;;;1.35;0.25;;;12.70;99.90;;;;;;5016744;28;20025;-76
2022/10/16 06:03:29;;;;;;;2.65;0.08;;;12.70;99.90;;;;;;5016524;28;20021;-76
2022/10/16 06:05:55;;;;;;;0.13;0.00;;;12.70;99.90;;;;;;5017159;28;20025;-75
2022/10/16 06:08:22;;;;;;;1.05;0.10;;;12.70;99.90;;;;;;5034720;28;20029;-75
2022/10/16 06:10:49;;;;;;;5.55;0.35;;;12.70;99.90;;;;;;5033631;28;20025;-74
2022/10/16 06:13:15;;;;;;;1.40;0.10;;;13.20;99.90;;;;;;5034033;28;20044;-75
2022/10/16 06:15:42;;;;;;;4.75;0.65;;;12.70;99.90;;;;;;5016212;28;20068;-74
2022/10/16 06:18:08;;;;;;;3.13;0.17;;;12.70;99.90;;;;;;5033815;28;20037;-74
2022/10/16 06:20:37;;;;;;;0.52;0.00;;;12.70;99.90;;;;;;5033682;28;20037;-76
2022/10/16 06:23:03;;;;;;;1.05;0.10;;;12.70;99.90;;;;;;5034084;28;20025;-76
2022/10/16 06:25:32;;;;;;;3.28;0.15;;;12.60;99.90;;;;;;5015580;28;20033;-77
2022/10/16 06:27:58;;;;;;;3.63;0.22;;;;;;;;;;5034177;28;20439;-76
2022/10/16 06:30:23;;;;;;;3.72;0.88;;;12.60;99.90;;;;;;5033444;28;20120;-76
2022/10/16 06:32:49;;;;;;;2.33;0.35;;;12.60;99.90;;;;;;5015901;28;20028;-76
2022/10/16 06:35:14;;;;;;;1.05;0.10;;;12.60;99.90;;;;;;5033569;28;20021;-76
2022/10/16 06:37:40;;;;;;;2.35;0.10;;;12.60;99.90;;;;;;5033594;28;20026;-76
2022/10/16 06:40:09;;;;;;;0.30;0.00;;;12.60;99.90;;;;;;5015782;28;20032;-77
2022/10/16 06:42:35;;;;;;;2.05;0.10;;;12.60;99.90;;;;;;5033879;28;20076;-75
2022/10/16 06:45:01;;;;;;;2.97;0.52;;;14.20;99.90;;;;;;5015744;28;20447;-75
2022/10/16 06:49:54;;;;;;;2.65;0.10;;;12.60;99.90;;;;;;5050996;28;20041;-76
2022/10/16 06:52:20;;;;;;;2.03;0.13;;;12.60;99.90;;;;;;5051594;28;20087;-76
2022/10/16 06:54:49;;;;;;;1.48;0.10;;;13.20;99.90;;;;;;5052287;28;20502;-76
2022/10/16 06:57:15;;;;;;;2.17;0.22;;;12.70;99.90;;;;;;5052023;28;20021;-76
2022/10/16 06:59:41;;;;;;;1.15;0.00;;;13.80;99.90;;;;;;5051956;28;20025;-76
2022/10/16 07:02:08;;;;;;;1.92;0.00;;;15.10;99.90;;;;;;5053286;28;20028;-76
2022/10/16 07:04:33;;;;;;;2.13;0.43;;;12.80;99.90;;;;;;5053685;28;20025;-76
2022/10/16 07:07:00;;;;;;;0.73;0.00;;;12.80;99.90;;;;;;5053737;28;20033;-77
2022/10/16 07:09:26;;;;;;;2.90;0.30;;;14.80;99.90;;;;;;5051906;28;20112;-76
2022/10/16 07:11:51;;;;;;;1.23;0.00;;;14.50;99.90;;;;;;5052558;28;20067;-76
2022/10/16 07:14:19;;;;;;;1.70;0.03;;;13.00;99.90;;;;;;5051624;28;20021;-75
2022/10/16 07:16:45;;;;;;;3.15;0.10;;;13.00;99.90;;;;;;5052983;28;20049;-75
2022/10/16 07:19:12;;;;;;;0.10;0.00;;;13.00;99.90;;;;;;5053215;28;20048;-76
2022/10/16 07:21:38;;;;;;;0.63;0.43;;;13.10;99.90;;;;;;5052940;28;20017;-76
2022/10/16 07:24:12;;;;;;;1.33;0.20;;;13.10;99.90;;;;;;5052763;28;20036;-76
2022/10/16 07:26:39;;;;;;;2.83;0.10;;;13.10;99.90;;;;;;5052896;28;20130;-75
2022/10/16 07:29:06;;;;;;;0.50;0.00;;;13.10;99.90;;;;;;5052748;28;20033;-75
2022/10/16 07:31:31;;;;;;;2.25;0.08;;;14.00;99.90;;;;;;5051559;28;20395;-75
2022/10/16 07:33:59;;;;;;;2.00;0.00;;;13.20;99.90;;;;;;5051487;28;20017;-75
2022/10/16 07:36:25;;;;;;;1.63;0.00;;;13.20;99.90;;;;;;5052741;28;20028;-75
2022/10/16 07:38:50;;;;;;;0.30;0.00;;;13.30;99.90;;;;;;5052662;28;20017;-75
2022/10/16 07:41:18;;;;;;;2.22;0.00;;;13.30;99.90;;;;;;5051470;28;20098;-75
2022/10/16 07:43:52;;;;;;;1.20;0.00;;;13.30;99.90;;;;;;5052724;28;20017;-75
2022/10/16 07:46:19;;;;;;;3.92;0.00;;;13.30;99.90;;;;;;5051337;28;20029;-75
2022/10/16 07:48:46;;;;;;;1.23;0.00;;;13.20;99.90;;;;;;5051605;28;20033;-75
2022/10/16 07:51:14;;;;;;;2.35;0.00;;;13.30;99.90;;;;;;5053339;28;20359;-75
2022/10/16 07:53:40;;;;;;;0.68;0.00;;;13.30;99.90;;;;;;5051105;28;20029;-76
2022/10/16 07:56:07;;;;;;;1.27;0.10;;;13.40;99.90;;;;;;5051308;28;20530;-76
2022/10/16 07:58:33;;;;;;;4.40;0.00;;;13.60;99.90;;;;;;5051058;28;20112;-75
2022/10/16 08:01:04;;;;;;;1.92;0.10;;;13.70;99.90;;;;;;5053170;28;20083;-75
2022/10/16 08:03:29;;;;;;;2.05;0.20;;;13.80;99.90;;;;;;5051041;28;20052;-76
2022/10/16 08:05:57;;;;;;;4.20;0.32;;;13.90;99.90;;;;;;5054759;28;20029;-75
2022/10/16 08:08:22;;;;;;;2.50;0.10;;;14.00;99.90;;;;;;5055865;28;20028;-75
2022/10/16 08:10:48;;;;;;;1.80;0.00;;;14.00;99.90;;;;;;5054351;28;20476;-75
2022/10/16 08:13:14;;;;;;;6.47;0.75;;;14.10;99.90;;;;;;5055915;28;20495;-75
2022/10/16 08:15:42;;;;;;;1.02;0.00;;;14.20;99.90;;;;;;5054652;28;20373;-75
2022/10/16 08:18:09;;;;;;;2.67;0.00;;;14.20;99.90;;;;;;5056512;28;20445;-75
2022/10/16 08:20:36;;;;;;;1.13;0.25;;;14.20;99.90;;;;;;5056128;28;20025;-75
2022/10/16 08:23:04;;;;;;;0.85;0.10;;;14.30;99.90;;;;;;5055826;28;20132;-75
2022/10/16 08:25:32;;;;;;;3.05;0.20;;;14.40;99.90;;;;;;5055746;28;20481;-75
2022/10/16 08:27:57;;;;;;;4.00;0.52;;;14.40;99.90;;;;;;5055643;28;20120;-75
2022/10/16 08:30:24;;;;;;;4.45;0.17;;;14.50;99.90;;;;;;5054174;28;20033;-75
2022/10/16 08:32:50;;;;;;;1.85;0.13;;;14.60;99.90;;;;;;5054205;28;20033;-75
2022/10/16 08:35:16;;;;;;;3.97;0.10;;;14.60;99.90;;;;;;5055473;28;20028;-75
2022/10/16 08:37:42;;;;;;;0.63;0.10;;;14.60;99.90;;;;;;5055502;28;20028;-75
2022/10/16 08:40:20;;;;;;;1.65;0.20;;;14.70;99.90;;;;;;5054989;28;20024;-74
2022/10/16 08:43:04;;;;;;;2.17;0.15;;;14.80;99.90;;;;;;5054107;28;20020;-74
2022/10/16 08:45:48;;;;;;;3.45;0.03;;;14.90;99.90;;;;;;5053979;28;20033;-74
2022/10/16 08:48:33;;;;;;;4.80;0.10;;;15.00;99.90;;;;;;5055086;28;20061;-75
2022/10/16 08:51:02;;;;;;;0.52;0.00;;;15.00;99.90;;;;;;5055078;28;20033;-75
2022/10/16 08:53:30;;;;;;;;;;;15.10;99.90;;;;;;5055497;28;20147;-75
2022/10/16 08:55:58;;;;;;;;;;;15.10;99.90;;;;;;5057050;28;19958;-77
2022/10/16 08:58:29;;;;;;;2.17;0.20;;;15.20;99.90;;;;;;5054303;28;19966;-75
2022/10/16 09:00:57;;;;;;;1.65;0.20;;;15.20;99.90;;;;;;5053981;28;20025;-76
2022/10/16 09:03:49;;;;;;;0.85;0.03;;;15.20;99.90;;;;;;5054291;28;20021;-75
2022/10/16 09:06:29;;;;;;;4.90;0.80;;;15.30;99.90;;;;;;5055708;28;20035;-76
2022/10/16 09:09:01;;;;;;;4.25;0.43;;;15.40;99.90;;;;;;5056008;28;20025;-75
2022/10/16 09:11:44;;;;;;;3.47;0.30;;;15.50;99.90;;;;;;5053650;28;20057;-75
2022/10/16 09:14:36;;;;;;;2.92;0.40;;;15.60;99.90;;;;;;5054935;28;20025;-75
2022/10/16 09:17:28;;;;;;;5.15;0.45;;;15.60;99.90;;;;;;5055286;28;20017;-75
2022/10/16 09:20:13;;;;;;;3.83;0.10;;;15.70;99.90;;;;;;5055265;28;20059;-75
2022/10/16 09:22:40;;;;;;;7.75;0.08;;;15.70;99.90;;;;;;5054785;28;20017;-75
2022/10/16 09:25:15;;;;;;;4.15;0.20;;;15.70;99.90;;;;;;5054637;28;20028;-75
2022/10/16 09:27:42;;;;;;;4.18;0.00;;;15.80;99.90;;;;;;5054570;28;20116;-75
2022/10/16 09:30:18;;;;;;;6.97;0.22;;;15.70;99.90;;;;;;5054320;28;20152;-74
2022/10/16 09:32:47;;;;;;;2.15;0.10;;;15.70;99.90;;;;;;5053432;28;20357;-74
2022/10/16 09:35:19;;;;;;;5.00;0.10;;;15.80;99.90;;;;;;5054543;28;20514;-73
2022/10/16 09:37:47;;;;;;;2.28;0.00;;;16.00;99.90;;;;;;5054395;28;20435;-74
2022/10/16 09:40:24;;;;;;;4.03;0.43;;;16.00;99.90;;;;;;5054393;28;20025;-73
2022/10/16 09:42:51;;;;;;;4.72;0.10;;;16.10;99.90;;;;;;5054349;28;20031;-75
2022/10/16 09:45:23;;;;;;;2.63;0.20;;;16.20;99.90;;;;;;5053012;28;20021;-75
2022/10/16 09:47:49;;;;;;;3.00;0.00;;;16.20;99.90;;;;;;5054585;28;20033;-75
2022/10/16 09:50:28;;;;;;;2.20;0.32;;;16.40;99.90;;;;;;5054069;28;20048;-75
2022/10/16 09:53:05;;;;;;;4.65;0.47;;;16.60;99.90;;;;;;5052855;28;20108;-75
2022/10/16 09:55:31;;;;;;;3.15;0.43;;;16.80;99.90;;;;;;5054137;28;20583;-75
2022/10/16 09:57:56;;;;;;;2.88;0.00;;;16.80;99.90;;;;;;5052938;28;20111;-76
2022/10/16 10:00:24;;;;;;;5.00;0.38;;;16.80;99.90;;;;;;5052969;28;20070;-77
2022/10/16 10:02:50;;;;;;;2.75;0.10;;;16.70;99.90;;;;;;5054473;28;20030;-75
2022/10/16 10:05:27;;;;;;;5.28;0.43;;;16.90;99.90;;;;;;5052646;28;20024;-72
2022/10/16 10:08:05;;;;;;;5.82;0.77;;;17.10;99.90;;;;;;5053904;28;20067;-72
2022/10/16 10:10:34;;;;;;;4.65;0.30;;;17.20;99.90;;;;;;5052466;28;20029;-72
2022/10/16 10:13:00;;;;;;;6.65;1.17;;;17.20;99.90;;;;;;5052784;28;20134;-72
2022/10/16 10:15:29;;;;;;;6.30;0.10;;;17.20;99.90;;;;;;5053816;28;20021;-72
2022/10/16 10:17:56;;;;;;;3.63;0.10;;;17.20;99.90;;;;;;5053707;28;20017;-72
2022/10/16 10:20:27;;;;;;;5.32;0.17;;;17.40;99.90;;;;;;5053693;28;20106;-73
2022/10/16 10:22:55;;;;;;;3.20;0.50;;;17.30;99.90;;;;;;5054288;28;20384;-72
2022/10/16 10:25:42;;;;;;;2.38;0.00;;;17.30;99.90;;;;;;5052282;28;20071;-74
2022/10/16 10:28:13;;;;;;;3.42;0.17;;;17.20;99.90;;;;;;5053712;28;20092;-73
2022/10/16 10:31:03;;;;;;;2.92;0.25;;;17.10;99.90;;;;;;5053330;28;20032;-74
2022/10/16 10:33:34;;;;;;;3.90;0.25;;;17.20;99.90;;;;;;5053491;28;20021;-73
2022/10/16 10:36:04;;;;;;;3.92;0.40;;;17.20;99.90;;;;;;5052082;28;20438;-73
2022/10/16 10:38:39;;;;;;;8.30;0.25;;;17.30;99.90;;;;;;5052986;28;20017;-73
2022/10/16 10:41:30;;;;;;;4.55;0.38;;;17.40;99.90;;;;;;5053897;28;20036;-73
2022/10/16 10:44:26;;;;;;;3.83;0.15;;;17.50;99.90;;;;;;5052168;28;20443;-73
2022/10/16 10:47:01;;;;;;;7.53;0.52;;;17.70;99.90;;;;;;5053908;28;20113;-72
2022/10/16 10:49:59;;;;;;;8.15;0.63;;;17.80;99.90;;;;;;5053253;28;20029;-72
2022/10/16 10:52:45;;;;;;;7.13;0.25;;;18.00;99.90;;;;;;5009538;28;20119;-72
2022/10/16 10:55:32;;;;;;;4.22;0.00;;;17.90;99.90;;;;;;5051867;28;20052;-74
2022/10/16 10:58:27;;;;;;;5.70;0.63;;;17.90;99.90;;;;;;5053404;28;20025;-72
2022/10/16 11:01:17;;;;;;;5.18;0.30;;;17.70;99.90;;;;;;4982325;28;20031;-74
2022/10/16 11:04:03;;;;;;;4.85;0.30;;;17.40;99.90;;;;;;5053025;28;20067;-74
2022/10/16 11:06:44;;;;;;;3.95;0.65;;;17.10;99.90;;;;;;5051908;28;20025;-74
2022/10/16 11:09:36;;;;;;;3.05;0.05;;;16.90;99.90;;;;;;5053122;28;20036;-74
2022/10/16 11:12:06;;;;;;;5.70;0.30;;;16.80;99.90;;;;;;5048884;28;20037;-74
2022/10/16 11:14:40;;;;;;;6.47;0.52;;;16.70;99.90;;;;;;5051702;28;20025;-74
2022/10/16 11:17:15;;;;;;;7.78;0.08;;;16.90;99.90;;;;;;5051776;28;20052;-74
2022/10/16 11:20:08;;;;;;;9.68;0.45;;;16.80;99.90;;;;;;5053442;28;20057;-74
2022/10/16 11:22:50;;;;;;;4.70;0.95;;;16.90;99.90;;;;;;5051655;28;20024;-74
2022/10/16 11:25:27;;;;;;;5.18;0.20;;;17.00;99.90;;;;;;5052957;28;20025;-74
2022/10/16 11:28:01;;;;;;;3.60;0.55;;;17.20;99.90;;;;;;5052773;28;20483;-73
2022/10/16 11:30:29;;;;;;;3.92;0.00;;;17.40;99.90;;;;;;5052673;28;20029;-73
2022/10/16 11:33:03;;;;;;;3.67;0.10;;;17.50;99.90;;;;;;5052830;28;20025;-73
2022/10/16 11:35:59;;;;;;;6.22;0.22;;;17.70;99.90;;;;;;5051496;28;20032;-73
2022/10/16 11:38:30;;;;;;;3.65;0.30;;;18.00;99.90;;;;;;5053279;28;20028;-73
2022/10/16 11:41:02;;;;;;;7.00;0.60;;;17.90;99.90;;;;;;5055325;28;20029;-73
2022/10/16 11:43:40;;;;;;;2.95;0.15;;;18.00;99.90;;;;;;5055485;28;20057;-73
2022/10/16 11:46:30;;;;;;;3.90;0.00;;;18.10;99.90;;;;;;5057174;28;20071;-73
2022/10/16 11:49:15;;;;;;;5.20;0.10;;;17.90;99.90;;;;;;5045564;28;20044;-73
2022/10/16 11:51:51;;;;;;;6.25;0.25;;;17.50;99.90;;;;;;5056415;28;20029;-73
2022/10/16 11:54:35;;;;;;;4.80;0.38;;;17.50;99.90;;;;;;5056584;28;20021;-73
2022/10/16 11:57:26;;;;;;;4.38;0.30;;;17.40;99.90;;;;;;5056421;28;20090;-74
2022/10/16 11:59:58;;;;;;;6.07;0.15;;;17.40;99.90;;;;;;5056246;28;20538;-74
2022/10/16 12:02:39;;;;;;;2.92;0.28;;;17.60;99.90;;;;;;5056294;28;20021;-72
2022/10/16 12:05:34;;;;;;;5.35;0.30;;;17.90;99.90;;;;;;5056216;28;20178;-72
2022/10/16 12:08:15;;;;;;;5.50;0.00;;;17.90;99.90;;;;;;5056823;28;20033;-72
2022/10/16 12:10:43;;;;;;;3.90;0.00;;;18.00;99.90;;;;;;5056274;28;20033;-72
2022/10/16 12:13:31;;;;;;;8.88;0.75;;;18.30;99.90;;;;;;5056199;28;20021;-72
2022/10/16 12:16:12;;;;;;;3.78;0.10;;;18.70;99.90;;;;;;5056210;28;20031;-72
2022/10/16 12:18:43;;;;;;;2.88;0.47;;;19.10;99.90;;;;;;5056019;28;20061;-72
2022/10/16 12:21:13;;;;;;;4.10;0.55;;;19.20;99.90;;;;;;5056025;28;20512;-72
2022/10/16 12:23:50;;;;;;;7.00;0.08;;;19.40;99.90;;;;;;5055989;28;20498;-72
2022/10/16 12:26:34;;;;;;;4.82;0.20;;;19.80;99.90;;;;;;5056489;28;20060;-72
2022/10/16 12:29:14;;;;;;;5.50;0.00;;;20.10;99.90;;;;;;5054683;28;20119;-72
2022/10/16 12:31:46;;;;;;;5.10;0.50;;;20.20;99.90;;;;;;5055795;28;20079;-72
2022/10/16 12:34:26;;;;;;;6.45;0.40;;;20.10;99.90;;;;;;5055764;28;20028;-72
2022/10/16 12:36:56;;;;;;;1.83;0.00;;;20.00;99.90;;;;;;5055768;28;20025;-72
2022/10/16 12:39:24;;;;;;;6.40;0.10;;;19.90;99.90;;;;;;5055710;28;20116;-72
2022/10/16 12:42:02;;;;;;;3.00;0.00;;;19.50;99.90;;;;;;5055587;28;20514;-72
2022/10/16 12:44:33;;;;;;;9.47;0.97;;;19.30;99.90;;;;;;5055642;28;20107;-72
2022/10/16 12:46:59;;;;;;;3.47;0.00;;;19.10;99.90;;;;;;5055708;28;20308;-72
2022/10/16 12:49:28;;;;;;;3.20;0.25;;;18.80;99.90;;;;;;5053669;28;20517;-72
2022/10/16 12:51:54;;;;;;;4.07;0.30;;;18.70;99.90;;;;;;5056076;28;20119;-72
2022/10/16 12:54:23;;;;;;;5.78;1.13;;;18.60;99.90;;;;;;5055331;28;20025;-72
2022/10/16 12:57:12;;;;;;;3.60;0.00;;;18.50;99.90;;;;;;5055233;28;20017;-72
2022/10/16 13:00:01;;;;;;;1.55;0.00;;;18.70;99.90;;;;;;5055525;28;20060;-72
2022/10/16 13:02:48;;;;;;;4.75;0.50;;;19.00;99.90;;;;;;5054877;28;20025;-72
2022/10/16 13:05:17;;;;;;;2.97;0.30;;;19.00;99.90;;;;;;5053714;28;20064;-72
2022/10/16 13:07:56;;;;;;;1.60;0.00;;;19.10;99.90;;;;;;5054979;28;20021;-72